createdAt,value
2023-01-18T00:01:50.250Z,1.61
2023-01-18T00:04:23.244Z,1.35
2023-01-18T00:06:57.313Z,1.43
2023-01-18T00:09:30.169Z,1.38
2023-01-18T00:12:02.960Z,1.27
2023-01-18T00:14:37.175Z,1.39
2023-01-18T00:17:10.050Z,1.43
2023-01-18T00:19:42.833Z,1.40
2023-01-18T00:22:15.646Z,1.13
2023-01-18T00:24:48.411Z,1.19
2023-01-18T00:27:21.290Z,1.14
2023-01-18T00:29:55.359Z,1.16
2023-01-18T00:32:28.332Z,1.18
2023-01-18T00:35:04.487Z,1.02
2023-01-18T00:37:37.973Z,1.34
2023-01-18T00:40:11.907Z,1.31
2023-01-18T00:43:02.394Z,1.42
2023-01-18T00:45:36.569Z,1.24
2023-01-18T00:48:09.416Z,1.15
2023-01-18T00:50:42.230Z,1.16
2023-01-18T00:53:15.005Z,0.92
2023-01-18T00:55:48.032Z,1.31
2023-01-18T00:58:20.838Z,1.03
2023-01-18T01:00:55.516Z,1.25
2023-01-18T01:03:28.349Z,1.30
2023-01-18T01:06:18.571Z,1.11
2023-01-18T01:08:51.510Z,1.06
2023-01-18T01:11:24.281Z,1.12
2023-01-18T01:14:14.482Z,0.87
2023-01-18T01:17:06.222Z,1.13
2023-01-18T01:19:56.339Z,1.04
2023-01-18T01:22:46.964Z,1.16
2023-01-18T01:25:37.231Z,1.33
2023-01-18T01:28:10.010Z,1.12
2023-01-18T01:30:44.629Z,0.96
2023-01-18T01:33:19.392Z,1.02
2023-01-18T01:35:56.569Z,1.36
2023-01-18T01:38:30.273Z,1.44
2023-01-18T01:41:05.670Z,1.51
2023-01-18T01:43:44.111Z,1.71
2023-01-18T01:46:39.528Z,1.70
2023-01-18T01:49:17.009Z,1.57
2023-01-18T01:51:54.484Z,1.60
2023-01-18T01:54:31.580Z,1.66
2023-01-18T01:57:08.222Z,1.34
2023-01-18T01:59:46.260Z,1.37
2023-01-18T02:02:19.333Z,1.11
2023-01-18T02:04:56.004Z,1.17
2023-01-18T02:07:29.725Z,1.26
2023-01-18T02:10:04.372Z,1.38
2023-01-18T02:12:40.768Z,1.62
2023-01-18T02:15:13.681Z,1.58
2023-01-18T02:18:02.050Z,1.11
2023-01-18T02:21:09.273Z,1.03
2023-01-18T02:24:15.965Z,1.43
2023-01-18T02:26:58.041Z,1.21
2023-01-18T02:29:49.229Z,1.24
2023-01-18T02:32:29.629Z,1.54
2023-01-18T02:35:08.053Z,1.62
2023-01-18T02:37:47.173Z,1.64
2023-01-18T02:40:26.901Z,1.46
2023-01-18T02:43:20.316Z,1.43
2023-01-18T02:46:22.673Z,0.96
2023-01-18T02:48:56.400Z,0.91
2023-01-18T02:51:29.234Z,1.07
2023-01-18T02:54:03.533Z,0.90
2023-01-18T02:56:41.473Z,0.63
2023-01-18T02:59:19.450Z,0.71
2023-01-18T03:01:58.283Z,0.50
2023-01-18T03:04:35.043Z,0.69
2023-01-18T03:07:14.010Z,0.84
2023-01-18T03:09:47.337Z,0.92
2023-01-18T03:12:25.669Z,1.03
2023-01-18T03:15:08.575Z,1.16
2023-01-18T03:17:44.963Z,0.92
2023-01-18T03:20:25.680Z,0.82
2023-01-18T03:23:21.006Z,0.76
2023-01-18T03:25:57.540Z,0.80
2023-01-18T03:28:53.374Z,0.71
2023-01-18T03:31:51.766Z,0.59
2023-01-18T03:34:30.659Z,0.45
2023-01-18T03:37:06.317Z,0.67
2023-01-18T03:39:43.980Z,0.63
2023-01-18T03:42:21.466Z,0.47
2023-01-18T03:44:59.470Z,0.37
2023-01-18T03:47:32.766Z,0.49
2023-01-18T03:50:07.723Z,0.40
2023-01-18T03:52:45.074Z,0.33
2023-01-18T03:55:24.568Z,0.47
2023-01-18T03:58:01.969Z,0.58
2023-01-18T04:00:35.155Z,0.42
2023-01-18T04:03:08.294Z,0.26
2023-01-18T04:05:42.545Z,0.41
2023-01-18T04:08:16.466Z,0.42
2023-01-18T04:10:49.288Z,0.26
2023-01-18T04:13:22.121Z,0.16
2023-01-18T04:15:54.953Z,0.14
2023-01-18T04:18:27.709Z,0.26
2023-01-18T04:21:01.984Z,0.30
2023-01-18T04:23:34.826Z,0.30
2023-01-18T04:26:07.665Z,0.30
2023-01-18T04:28:40.396Z,0.33
2023-01-18T04:31:13.257Z,0.52
2023-01-18T04:33:46.036Z,0.21
2023-01-18T04:36:21.059Z,0.22
2023-01-18T04:38:54.849Z,0.28
2023-01-18T04:41:27.695Z,0.44
2023-01-18T04:44:00.637Z,0.44
2023-01-18T04:46:33.578Z,0.45
2023-01-18T04:49:06.781Z,0.33
2023-01-18T04:51:40.965Z,0.35
2023-01-18T04:54:16.629Z,0.32
2023-01-18T04:56:49.399Z,0.56
2023-01-18T04:59:22.183Z,0.48
2023-01-18T05:01:54.991Z,0.47
2023-01-18T05:04:27.811Z,0.33
2023-01-18T05:07:02.656Z,0.48
2023-01-18T05:09:35.500Z,0.52
2023-01-18T05:12:08.529Z,0.56
2023-01-18T05:14:41.427Z,0.37
2023-01-18T05:17:14.294Z,0.29
2023-01-18T05:19:47.065Z,0.34
2023-01-18T05:22:21.360Z,0.43
2023-01-18T05:24:54.936Z,0.24
2023-01-18T05:27:27.738Z,0.47
2023-01-18T05:30:01.958Z,0.67
2023-01-18T05:32:34.991Z,0.51
2023-01-18T05:35:08.661Z,0.45
2023-01-18T05:37:42.933Z,0.39
2023-01-18T05:40:16.252Z,0.39
2023-01-18T05:42:49.196Z,0.47
2023-01-18T05:45:22.228Z,0.59
2023-01-18T05:47:55.745Z,0.58
2023-01-18T05:50:28.611Z,0.55
2023-01-18T05:53:03.348Z,0.86
2023-01-18T05:55:36.452Z,0.71
2023-01-18T05:58:09.487Z,0.43
2023-01-18T06:00:42.275Z,0.59
2023-01-18T06:03:15.066Z,0.38
2023-01-18T06:05:48.464Z,0.37
2023-01-18T06:08:22.973Z,0.20
2023-01-18T06:10:57.417Z,0.65
2023-01-18T06:13:32.880Z,0.84
2023-01-18T06:16:06.377Z,0.60
2023-01-18T06:18:39.926Z,0.38
2023-01-18T06:21:13.021Z,0.61
2023-01-18T06:23:47.117Z,0.58
2023-01-18T06:26:19.960Z,0.44
2023-01-18T06:28:53.525Z,0.45
2023-01-18T06:31:26.374Z,0.24
2023-01-18T06:33:59.302Z,0.43
2023-01-18T06:36:32.993Z,0.21
2023-01-18T06:39:08.036Z,0.09
2023-01-18T06:41:40.878Z,0.17
2023-01-18T06:44:13.861Z,0.29
2023-01-18T06:46:47.071Z,0.25
2023-01-18T06:49:19.838Z,0.21
2023-01-18T06:51:53.030Z,0.22
2023-01-18T06:54:27.196Z,0.23
2023-01-18T06:56:59.972Z,0.25
2023-01-18T06:59:32.784Z,0.19
2023-01-18T07:02:05.833Z,0.35
2023-01-18T07:04:44.160Z,0.20
2023-01-18T07:07:17.199Z,0.31
2023-01-18T07:09:51.379Z,0.16
2023-01-18T07:12:24.149Z,0.21
2023-01-18T07:14:57.539Z,0.28
2023-01-18T07:17:30.252Z,0.13
2023-01-18T07:20:03.127Z,0.16
2023-01-18T07:22:35.872Z,0.15
2023-01-18T07:25:13.318Z,0.31
2023-01-18T07:27:46.223Z,0.20
2023-01-18T07:30:19.482Z,0.23
2023-01-18T07:32:53.752Z,0.25
2023-01-18T07:35:27.512Z,0.23
2023-01-18T07:38:00.275Z,0.40
2023-01-18T07:40:35.440Z,0.28
2023-01-18T07:43:08.183Z,0.36
2023-01-18T07:45:40.953Z,0.28
2023-01-18T07:48:13.810Z,0.28
2023-01-18T07:50:53.831Z,0.26
2023-01-18T07:53:28.081Z,0.37
2023-01-18T07:56:03.407Z,0.41
2023-01-18T07:58:36.794Z,0.33
2023-01-18T08:01:12.462Z,0.29
2023-01-18T08:03:47.938Z,0.32
2023-01-18T08:06:22.335Z,0.54
2023-01-18T08:08:56.370Z,0.51
2023-01-18T08:11:31.455Z,0.53
2023-01-18T08:14:04.195Z,0.34
2023-01-18T08:16:36.916Z,0.63
2023-01-18T08:19:09.880Z,0.68
2023-01-18T08:21:42.670Z,0.63
2023-01-18T08:24:15.560Z,0.79
2023-01-18T08:26:49.649Z,0.64
2023-01-18T08:29:22.348Z,0.67
2023-01-18T08:31:55.278Z,0.78
2023-01-18T08:34:28.045Z,0.94
2023-01-18T08:37:00.810Z,0.75
2023-01-18T08:39:33.590Z,0.86
2023-01-18T08:42:07.848Z,0.94
2023-01-18T08:44:40.605Z,0.82
2023-01-18T08:47:13.652Z,1.07
2023-01-18T08:49:46.676Z,0.76
2023-01-18T08:52:19.369Z,0.54
2023-01-18T08:54:52.491Z,0.83
2023-01-18T08:57:28.497Z,0.80
2023-01-18T09:00:04.590Z,0.67
2023-01-18T09:02:37.444Z,0.92
2023-01-18T09:05:10.707Z,1.07
2023-01-18T09:07:44.662Z,0.94
2023-01-18T09:10:18.442Z,1.04
2023-01-18T09:12:53.745Z,0.72
2023-01-18T09:15:27.056Z,0.71
2023-01-18T09:18:05.097Z,0.66
2023-01-18T09:20:37.837Z,1.02
2023-01-18T09:23:11.217Z,1.05
2023-01-18T09:25:43.988Z,0.78
2023-01-18T09:28:18.094Z,0.91
2023-01-18T09:30:50.930Z,1.03
2023-01-18T09:33:27.392Z,0.82
2023-01-18T09:36:05.388Z,0.95
2023-01-18T09:38:39.282Z,0.93
2023-01-18T09:41:26.783Z,0.90
2023-01-18T09:44:03.442Z,1.11
2023-01-18T09:46:39.385Z,0.96
2023-01-18T09:49:19.657Z,1.02
2023-01-18T09:52:04.271Z,1.06
2023-01-18T09:54:43.922Z,1.25
2023-01-18T09:57:31.193Z,1.27
2023-01-18T10:00:19.420Z,1.23
2023-01-18T10:02:55.462Z,1.27
2023-01-18T10:05:31.960Z,1.17
2023-01-18T10:08:08.066Z,1.02
2023-01-18T10:10:46.213Z,0.94
2023-01-18T10:13:39.457Z,1.20
2023-01-18T10:16:15.386Z,1.13
2023-01-18T10:18:51.558Z,1.17
2023-01-18T10:21:32.991Z,1.11
2023-01-18T10:24:19.245Z,1.31
2023-01-18T10:26:59.495Z,1.43
2023-01-18T10:29:46.223Z,1.64
2023-01-18T10:32:24.276Z,1.61
2023-01-18T10:34:58.795Z,1.89
2023-01-18T10:37:40.213Z,1.83
2023-01-18T10:40:14.728Z,1.98
2023-01-18T10:42:49.660Z,1.84
2023-01-18T10:45:25.322Z,2.08
2023-01-18T10:48:14.267Z,2.21
2023-01-18T10:50:52.320Z,2.18
2023-01-18T10:53:31.443Z,2.53
2023-01-18T10:56:07.875Z,2.49
2023-01-18T10:58:45.276Z,2.23
2023-01-18T11:01:21.234Z,2.11
2023-01-18T11:04:06.066Z,2.54
2023-01-18T11:06:47.140Z,2.39
2023-01-18T11:09:41.771Z,1.99
2023-01-18T11:12:37.110Z,1.93
2023-01-18T11:15:29.984Z,2.18
2023-01-18T11:18:06.614Z,2.48
2023-01-18T11:20:50.191Z,1.85
2023-01-18T11:23:26.428Z,2.21
2023-01-18T11:26:01.775Z,2.01
2023-01-18T11:28:45.292Z,2.09
2023-01-18T11:31:22.341Z,2.26
2023-01-18T11:33:57.615Z,2.31
2023-01-18T11:36:40.380Z,1.91
2023-01-18T11:39:32.409Z,1.92
2023-01-18T11:42:18.669Z,1.48
2023-01-18T11:45:05.475Z,1.45
2023-01-18T11:47:50.596Z,1.49
2023-01-18T11:50:35.358Z,1.60
2023-01-18T11:53:22.343Z,1.72
2023-01-18T11:56:06.057Z,1.85
2023-01-18T11:58:39.174Z,1.70
2023-01-18T12:10:34.644Z,1.73
2023-01-18T12:13:23.016Z,1.74
2023-01-18T12:16:05.492Z,1.58
2023-01-18T12:19:01.405Z,1.77
2023-01-18T12:21:46.223Z,1.73
2023-01-18T12:24:35.868Z,1.67
2023-01-18T12:27:20.209Z,2.10
2023-01-18T12:30:09.762Z,2.12
2023-01-18T12:33:02.181Z,2.20
2023-01-18T12:36:09.428Z,2.23
2023-01-18T12:38:49.736Z,2.17
2023-01-18T12:41:37.711Z,2.37
2023-01-18T12:44:28.714Z,2.57
2023-01-18T12:47:12.603Z,2.43
2023-01-18T12:49:49.308Z,2.17
2023-01-18T12:52:23.562Z,2.14
2023-01-18T12:55:04.292Z,2.02
2023-01-18T12:57:37.512Z,2.09
2023-01-18T13:00:21.160Z,1.83
2023-01-18T13:02:57.711Z,1.81
2023-01-18T13:05:38.492Z,2.24
2023-01-18T13:08:15.065Z,2.32
2023-01-18T13:10:49.672Z,2.14
2023-01-18T13:13:27.628Z,2.18
2023-01-18T13:16:10.978Z,2.20
2023-01-18T13:18:51.894Z,2.32
2023-01-18T13:21:36.898Z,2.29
2023-01-18T13:24:23.884Z,1.96
2023-01-18T13:27:08.882Z,1.90
2023-01-18T13:29:43.954Z,2.21
2023-01-18T13:32:36.230Z,1.89
2023-01-18T13:35:20.960Z,2.21
2023-01-18T13:37:58.213Z,2.20
2023-01-18T13:40:38.754Z,1.85
2023-01-18T13:43:33.922Z,1.78
2023-01-18T13:46:21.458Z,1.89
2023-01-18T13:48:57.559Z,1.89
2023-01-18T13:51:54.035Z,1.90
2023-01-18T13:55:01.058Z,2.16
2023-01-18T13:57:35.750Z,2.05
2023-01-18T14:00:25.060Z,1.92
2023-01-18T14:03:05.015Z,1.90
2023-01-18T14:05:45.126Z,1.92
2023-01-18T14:08:24.904Z,1.71
2023-01-18T14:11:03.558Z,1.68
2023-01-18T14:14:03.161Z,1.96
2023-01-18T14:16:39.919Z,1.88
2023-01-18T14:19:18.425Z,1.82
2023-01-18T14:22:24.395Z,1.68
2023-01-18T14:25:17.446Z,1.50
2023-01-18T14:28:01.274Z,1.45
2023-01-18T14:30:37.135Z,1.65
2023-01-18T14:33:16.747Z,1.78
2023-01-18T14:35:54.340Z,1.32
2023-01-18T14:38:30.606Z,1.46
2023-01-18T14:41:09.075Z,1.45
2023-01-18T14:43:45.517Z,1.63
2023-01-18T14:46:29.014Z,1.63
2023-01-18T14:49:03.364Z,1.61
2023-01-18T14:51:37.299Z,1.59
2023-01-18T14:54:18.441Z,1.38
2023-01-18T14:57:02.316Z,1.44
2023-01-18T14:59:36.557Z,1.41
2023-01-18T15:07:07.749Z,1.66
2023-01-18T15:09:50.231Z,1.40
2023-01-18T15:12:32.562Z,1.44
2023-01-18T19:50:25.902Z,-1.29
2023-01-18T19:53:01.439Z,-2.10
2023-01-18T19:55:36.619Z,-1.70
2023-01-18T19:58:13.392Z,-1.68
2023-01-18T20:00:47.218Z,-1.40
2023-01-18T20:03:20.839Z,-1.80
2023-01-18T20:05:56.840Z,-1.88
2023-01-18T20:08:31.571Z,-1.48
2023-01-18T20:11:06.239Z,-1.48
2023-01-18T20:13:42.194Z,-1.87
2023-01-18T20:16:15.589Z,-2.45
2023-01-18T20:18:49.914Z,-2.95
2023-01-18T20:21:23.502Z,-2.56
2023-01-18T20:23:58.770Z,-2.57
2023-01-18T20:26:36.981Z,-2.98
2023-01-18T20:29:11.648Z,-2.92
2023-01-18T20:31:50.022Z,-2.69
2023-01-18T20:34:23.558Z,-2.52
2023-01-18T20:36:57.035Z,-3.01
2023-01-18T20:39:31.865Z,-2.85
2023-01-18T20:42:05.367Z,-2.96
2023-01-18T20:44:38.813Z,-2.57
2023-01-18T20:47:12.347Z,-2.33
2023-01-18T20:49:45.928Z,-3.03
2023-01-18T20:52:19.091Z,-2.81
2023-01-18T20:54:56.586Z,-3.78
2023-01-18T20:57:31.683Z,-3.60
2023-01-18T21:00:05.537Z,-2.85
2023-01-18T21:02:38.580Z,-2.90
2023-01-18T21:05:11.968Z,-3.19
2023-01-18T21:07:44.907Z,-4.29
2023-01-18T21:10:19.753Z,-3.80
2023-01-18T21:12:52.896Z,-3.82
2023-01-18T21:15:26.425Z,-4.34
2023-01-18T21:18:01.015Z,-4.09
2023-01-18T21:20:35.848Z,-4.16
2023-01-18T21:23:09.839Z,-4.25
2023-01-18T21:25:50.196Z,-4.05
2023-01-18T21:28:22.966Z,-4.46
2023-01-18T21:30:57.229Z,-4.84
2023-01-18T21:33:30.142Z,-5.34
2023-01-18T21:36:05.173Z,-5.55
2023-01-18T21:38:37.992Z,-5.83
2023-01-18T21:41:30.133Z,-5.70
2023-01-18T21:44:20.627Z,-5.39
2023-01-18T21:46:53.815Z,-5.49
2023-01-18T21:50:11.405Z,-5.13
2023-01-18T21:52:55.839Z,-5.17
2023-01-18T21:55:28.839Z,-5.72
2023-01-18T21:58:20.647Z,-5.36
2023-01-18T22:00:53.606Z,-4.93
2023-01-18T22:03:26.492Z,-5.45
2023-01-18T22:06:02.255Z,-4.82
2023-01-18T22:08:35.380Z,-4.81
2023-01-18T22:11:08.169Z,-4.47
2023-01-18T22:13:42.412Z,-4.53
2023-01-18T22:16:15.320Z,-4.92
2023-01-18T22:18:50.018Z,-5.51
2023-01-18T22:21:25.274Z,-5.65
2023-01-18T22:23:58.155Z,-5.45
2023-01-18T22:26:32.112Z,-5.70
2023-01-18T22:29:06.494Z,-5.14
2023-01-18T22:31:39.606Z,-4.98
2023-01-18T22:34:18.556Z,-4.78
2023-01-18T22:36:51.466Z,-5.27
2023-01-18T22:39:24.274Z,-5.14
2023-01-18T22:41:57.177Z,-5.23
2023-01-18T22:44:32.743Z,-4.75
2023-01-18T22:47:05.668Z,-5.76
2023-01-18T22:49:38.459Z,-5.37
2023-01-18T22:52:11.245Z,-5.95
2023-01-18T22:54:44.077Z,-5.31
2023-01-18T22:57:16.877Z,-4.99
2023-01-18T22:59:51.306Z,-5.58
2023-01-18T23:02:24.192Z,-5.53
2023-01-18T23:04:57.043Z,-6.14
2023-01-18T23:07:29.858Z,-6.15
2023-01-18T23:10:02.748Z,-5.50
2023-01-18T23:12:35.562Z,-5.50
2023-01-18T23:15:28.956Z,-5.39
2023-01-18T23:18:02.059Z,-5.41
2023-01-18T23:20:35.093Z,-5.38
2023-01-18T23:23:07.850Z,-5.77
2023-01-18T23:25:40.651Z,-5.73
2023-01-18T23:28:13.470Z,-5.82
2023-01-18T23:30:47.614Z,-5.89
2023-01-18T23:33:20.509Z,-5.34
2023-01-18T23:35:53.308Z,-4.91
2023-01-18T23:38:26.085Z,-5.15
2023-01-18T23:41:16.649Z,-5.40
2023-01-18T23:44:06.923Z,-5.65
2023-01-18T23:46:58.607Z,-5.28
2023-01-18T23:49:48.962Z,-5.41
2023-01-18T23:52:39.216Z,-5.31
2023-01-18T23:55:12.138Z,-5.51
2023-01-18T23:57:44.916Z,-5.50
